sensor_id;sensor_type;location;lat;lon;timestamp;P1;durP1;ratioP1;P2;durP2;ratioP2
19595;SDS011;9945;46.010;8.946;2024-03-08T00:00:28;11.18;;;9.25;;
19595;SDS011;9945;46.010;8.946;2024-03-08T00:02:58;14.07;;;9.00;;
19595;SDS011;9945;46.010;8.946;2024-03-08T00:05:27;13.43;;;9.05;;
19595;SDS011;9945;46.010;8.946;2024-03-08T00:07:54;10.00;;;9.00;;
19595;SDS011;9945;46.010;8.946;2024-03-08T00:10:21;10.93;;;8.80;;
19595;SDS011;9945;46.010;8.946;2024-03-08T00:12:49;10.38;;;9.27;;
19595;SDS011;9945;46.010;8.946;2024-03-08T00:15:17;11.65;;;8.73;;
19595;SDS011;9945;46.010;8.946;2024-03-08T00:17:44;11.23;;;8.57;;
19595;SDS011;9945;46.010;8.946;2024-03-08T00:20:11;9.93;;;8.80;;
19595;SDS011;9945;46.010;8.946;2024-03-08T00:22:39;14.35;;;9.63;;
19595;SDS011;9945;46.010;8.946;2024-03-08T00:25:07;13.25;;;9.45;;
19595;SDS011;9945;46.010;8.946;2024-03-08T00:27:35;13.55;;;8.88;;
19595;SDS011;9945;46.010;8.946;2024-03-08T00:30:02;10.93;;;8.70;;
19595;SDS011;9945;46.010;8.946;2024-03-08T00:32:29;11.93;;;9.07;;
19595;SDS011;9945;46.010;8.946;2024-03-08T00:34:56;13.80;;;9.18;;
19595;SDS011;9945;46.010;8.946;2024-03-08T00:37:23;11.82;;;9.45;;
19595;SDS011;9945;46.010;8.946;2024-03-08T00:39:52;14.90;;;10.02;;
19595;SDS011;9945;46.010;8.946;2024-03-08T00:42:20;14.82;;;10.13;;
19595;SDS011;9945;46.010;8.946;2024-03-08T00:44:47;15.85;;;10.02;;
19595;SDS011;9945;46.010;8.946;2024-03-08T00:47:16;11.15;;;9.70;;
19595;SDS011;9945;46.010;8.946;2024-03-08T00:49:43;13.13;;;10.40;;
19595;SDS011;9945;46.010;8.946;2024-03-08T00:52:10;12.38;;;10.30;;
19595;SDS011;9945;46.010;8.946;2024-03-08T00:54:37;11.10;;;9.93;;
19595;SDS011;9945;46.010;8.946;2024-03-08T00:57:05;13.52;;;11.40;;
19595;SDS011;9945;46.010;8.946;2024-03-08T00:59:32;25.08;;;11.55;;
19595;SDS011;9945;46.010;8.946;2024-03-08T01:01:59;16.70;;;10.63;;
19595;SDS011;9945;46.010;8.946;2024-03-08T01:04:26;13.73;;;9.20;;
19595;SDS011;9945;46.010;8.946;2024-03-08T01:06:54;11.07;;;9.55;;
19595;SDS011;9945;46.010;8.946;2024-03-08T01:09:21;14.00;;;9.10;;
19595;SDS011;9945;46.010;8.946;2024-03-08T01:11:48;21.02;;;10.27;;
19595;SDS011;9945;46.010;8.946;2024-03-08T01:14:17;13.27;;;10.32;;
19595;SDS011;9945;46.010;8.946;2024-03-08T01:16:44;13.35;;;9.48;;
19595;SDS011;9945;46.010;8.946;2024-03-08T01:19:10;10.57;;;9.55;;
19595;SDS011;9945;46.010;8.946;2024-03-08T01:21:38;13.00;;;9.88;;
19595;SDS011;9945;46.010;8.946;2024-03-08T01:24:05;15.48;;;9.25;;
19595;SDS011;9945;46.010;8.946;2024-03-08T01:26:32;12.82;;;10.73;;
19595;SDS011;9945;46.010;8.946;2024-03-08T01:29:00;13.65;;;9.35;;
19595;SDS011;9945;46.010;8.946;2024-03-08T01:31:29;10.40;;;9.30;;
19595;SDS011;9945;46.010;8.946;2024-03-08T01:33:56;13.30;;;11.18;;
19595;SDS011;9945;46.010;8.946;2024-03-08T01:36:24;15.32;;;10.10;;
19595;SDS011;9945;46.010;8.946;2024-03-08T01:38:54;13.82;;;10.02;;
19595;SDS011;9945;46.010;8.946;2024-03-08T01:41:21;11.88;;;10.13;;
19595;SDS011;9945;46.010;8.946;2024-03-08T01:43:48;10.82;;;9.55;;
19595;SDS011;9945;46.010;8.946;2024-03-08T01:46:17;15.52;;;10.63;;
19595;SDS011;9945;46.010;8.946;2024-03-08T01:48:48;13.20;;;10.27;;
19595;SDS011;9945;46.010;8.946;2024-03-08T01:51:17;14.38;;;10.63;;
19595;SDS011;9945;46.010;8.946;2024-03-08T01:53:45;14.13;;;11.07;;
19595;SDS011;9945;46.010;8.946;2024-03-08T01:56:13;14.38;;;12.10;;
19595;SDS011;9945;46.010;8.946;2024-03-08T01:58:40;15.40;;;10.88;;
19595;SDS011;9945;46.010;8.946;2024-03-08T02:01:09;14.75;;;10.68;;
19595;SDS011;9945;46.010;8.946;2024-03-08T02:03:39;14.98;;;10.32;;
19595;SDS011;9945;46.010;8.946;2024-03-08T02:06:10;15.75;;;11.35;;
19595;SDS011;9945;46.010;8.946;2024-03-08T02:08:39;12.85;;;11.25;;
19595;SDS011;9945;46.010;8.946;2024-03-08T02:11:09;14.43;;;10.30;;
19595;SDS011;9945;46.010;8.946;2024-03-08T02:13:36;11.43;;;10.32;;
19595;SDS011;9945;46.010;8.946;2024-03-08T02:16:03;11.48;;;10.27;;
19595;SDS011;9945;46.010;8.946;2024-03-08T02:18:33;15.80;;;11.02;;
19595;SDS011;9945;46.010;8.946;2024-03-08T02:21:02;12.02;;;10.68;;
19595;SDS011;9945;46.010;8.946;2024-03-08T02:23:30;12.05;;;10.55;;
19595;SDS011;9945;46.010;8.946;2024-03-08T02:25:58;13.93;;;11.25;;
19595;SDS011;9945;46.010;8.946;2024-03-08T02:28:25;11.88;;;10.65;;
19595;SDS011;9945;46.010;8.946;2024-03-08T02:30:53;12.45;;;10.70;;
19595;SDS011;9945;46.010;8.946;2024-03-08T02:33:21;16.25;;;11.40;;
19595;SDS011;9945;46.010;8.946;2024-03-08T02:35:49;12.95;;;11.20;;
19595;SDS011;9945;46.010;8.946;2024-03-08T02:38:18;15.77;;;11.27;;
19595;SDS011;9945;46.010;8.946;2024-03-08T02:40:47;14.32;;;11.75;;
19595;SDS011;9945;46.010;8.946;2024-03-08T02:43:15;12.90;;;11.25;;
19595;SDS011;9945;46.010;8.946;2024-03-08T02:45:43;20.67;;;12.93;;
19595;SDS011;9945;46.010;8.946;2024-03-08T02:48:10;16.70;;;13.43;;
19595;SDS011;9945;46.010;8.946;2024-03-08T02:50:38;18.38;;;13.65;;
19595;SDS011;9945;46.010;8.946;2024-03-08T02:53:07;15.30;;;13.20;;
19595;SDS011;9945;46.010;8.946;2024-03-08T02:55:36;14.77;;;13.23;;
19595;SDS011;9945;46.010;8.946;2024-03-08T02:58:03;15.15;;;12.68;;
19595;SDS011;9945;46.010;8.946;2024-03-08T03:00:33;15.45;;;13.82;;
19595;SDS011;9945;46.010;8.946;2024-03-08T03:03:00;16.33;;;13.63;;
19595;SDS011;9945;46.010;8.946;2024-03-08T03:05:28;20.92;;;14.43;;
19595;SDS011;9945;46.010;8.946;2024-03-08T03:07:56;16.45;;;14.25;;
19595;SDS011;9945;46.010;8.946;2024-03-08T03:10:23;20.02;;;15.18;;
19595;SDS011;9945;46.010;8.946;2024-03-08T03:12:53;17.63;;;14.93;;
19595;SDS011;9945;46.010;8.946;2024-03-08T03:15:20;21.60;;;16.25;;
19595;SDS011;9945;46.010;8.946;2024-03-08T03:17:47;21.08;;;17.90;;
19595;SDS011;9945;46.010;8.946;2024-03-08T03:20:16;18.38;;;16.30;;
19595;SDS011;9945;46.010;8.946;2024-03-08T03:22:48;20.85;;;16.80;;
19595;SDS011;9945;46.010;8.946;2024-03-08T03:25:17;24.02;;;16.58;;
19595;SDS011;9945;46.010;8.946;2024-03-08T03:27:50;19.83;;;17.13;;
19595;SDS011;9945;46.010;8.946;2024-03-08T03:30:21;19.15;;;16.58;;
19595;SDS011;9945;46.010;8.946;2024-03-08T03:32:51;21.58;;;18.73;;
19595;SDS011;9945;46.010;8.946;2024-03-08T03:35:19;20.00;;;17.60;;
19595;SDS011;9945;46.010;8.946;2024-03-08T03:37:47;20.90;;;18.13;;
19595;SDS011;9945;46.010;8.946;2024-03-08T03:40:26;23.67;;;17.95;;
19595;SDS011;9945;46.010;8.946;2024-03-08T03:42:55;23.30;;;18.20;;
19595;SDS011;9945;46.010;8.946;2024-03-08T03:45:22;20.30;;;17.80;;
19595;SDS011;9945;46.010;8.946;2024-03-08T03:47:49;23.80;;;19.60;;
19595;SDS011;9945;46.010;8.946;2024-03-08T03:50:17;20.38;;;17.42;;
19595;SDS011;9945;46.010;8.946;2024-03-08T03:52:45;20.77;;;17.13;;
19595;SDS011;9945;46.010;8.946;2024-03-08T03:55:12;25.02;;;19.58;;
19595;SDS011;9945;46.010;8.946;2024-03-08T03:57:40;21.45;;;18.88;;
19595;SDS011;9945;46.010;8.946;2024-03-08T04:00:09;20.75;;;17.48;;
19595;SDS011;9945;46.010;8.946;2024-03-08T04:02:36;23.20;;;17.88;;
19595;SDS011;9945;46.010;8.946;2024-03-08T04:05:04;19.05;;;17.05;;
19595;SDS011;9945;46.010;8.946;2024-03-08T04:07:32;19.80;;;17.90;;
19595;SDS011;9945;46.010;8.946;2024-03-08T04:09:59;21.13;;;17.38;;
19595;SDS011;9945;46.010;8.946;2024-03-08T04:12:26;23.17;;;17.98;;
19595;SDS011;9945;46.010;8.946;2024-03-08T04:14:55;19.20;;;17.10;;
19595;SDS011;9945;46.010;8.946;2024-03-08T04:17:23;20.42;;;18.20;;
19595;SDS011;9945;46.010;8.946;2024-03-08T04:19:51;23.73;;;17.25;;
19595;SDS011;9945;46.010;8.946;2024-03-08T04:22:18;20.02;;;17.30;;
19595;SDS011;9945;46.010;8.946;2024-03-08T04:24:45;21.65;;;17.10;;
19595;SDS011;9945;46.010;8.946;2024-03-08T04:27:12;18.83;;;16.70;;
19595;SDS011;9945;46.010;8.946;2024-03-08T04:29:40;18.48;;;16.45;;
19595;SDS011;9945;46.010;8.946;2024-03-08T04:32:08;21.00;;;16.85;;
19595;SDS011;9945;46.010;8.946;2024-03-08T04:34:36;21.77;;;16.80;;
19595;SDS011;9945;46.010;8.946;2024-03-08T04:37:03;20.25;;;16.33;;
19595;SDS011;9945;46.010;8.946;2024-03-08T04:39:31;21.88;;;18.15;;
19595;SDS011;9945;46.010;8.946;2024-03-08T04:41:58;21.60;;;16.33;;
19595;SDS011;9945;46.010;8.946;2024-03-08T04:44:28;18.92;;;16.52;;
19595;SDS011;9945;46.010;8.946;2024-03-08T04:46:55;20.13;;;16.10;;
19595;SDS011;9945;46.010;8.946;2024-03-08T04:49:22;25.55;;;17.35;;
19595;SDS011;9945;46.010;8.946;2024-03-08T04:51:51;18.35;;;16.42;;
19595;SDS011;9945;46.010;8.946;2024-03-08T04:54:18;19.33;;;17.15;;
19595;SDS011;9945;46.010;8.946;2024-03-08T04:56:45;21.88;;;17.80;;
19595;SDS011;9945;46.010;8.946;2024-03-08T04:59:11;20.35;;;16.60;;
19595;SDS011;9945;46.010;8.946;2024-03-08T05:01:38;20.17;;;17.50;;
19595;SDS011;9945;46.010;8.946;2024-03-08T05:04:05;23.02;;;16.92;;
19595;SDS011;9945;46.010;8.946;2024-03-08T05:06:32;22.95;;;16.95;;
19595;SDS011;9945;46.010;8.946;2024-03-08T05:09:01;22.13;;;17.15;;
19595;SDS011;9945;46.010;8.946;2024-03-08T05:11:31;22.55;;;17.45;;
19595;SDS011;9945;46.010;8.946;2024-03-08T05:13:58;21.15;;;17.45;;
19595;SDS011;9945;46.010;8.946;2024-03-08T05:16:25;20.95;;;18.15;;
19595;SDS011;9945;46.010;8.946;2024-03-08T05:18:52;21.23;;;18.20;;
19595;SDS011;9945;46.010;8.946;2024-03-08T05:21:19;19.42;;;17.33;;
19595;SDS011;9945;46.010;8.946;2024-03-08T05:23:46;20.95;;;16.98;;
19595;SDS011;9945;46.010;8.946;2024-03-08T05:26:16;22.40;;;17.83;;
19595;SDS011;9945;46.010;8.946;2024-03-08T05:28:44;23.55;;;18.77;;
19595;SDS011;9945;46.010;8.946;2024-03-08T05:31:17;21.17;;;18.00;;
19595;SDS011;9945;46.010;8.946;2024-03-08T05:33:46;21.83;;;17.60;;
19595;SDS011;9945;46.010;8.946;2024-03-08T05:36:12;22.50;;;18.13;;
19595;SDS011;9945;46.010;8.946;2024-03-08T05:38:40;21.92;;;16.77;;
19595;SDS011;9945;46.010;8.946;2024-03-08T05:41:08;19.65;;;17.52;;
19595;SDS011;9945;46.010;8.946;2024-03-08T05:43:36;23.23;;;17.40;;
19595;SDS011;9945;46.010;8.946;2024-03-08T05:46:03;22.98;;;19.13;;
19595;SDS011;9945;46.010;8.946;2024-03-08T05:48:30;20.27;;;17.33;;
19595;SDS011;9945;46.010;8.946;2024-03-08T05:50:58;24.58;;;18.30;;
19595;SDS011;9945;46.010;8.946;2024-03-08T05:53:27;21.77;;;18.45;;
19595;SDS011;9945;46.010;8.946;2024-03-08T05:55:56;22.52;;;19.35;;
19595;SDS011;9945;46.010;8.946;2024-03-08T05:58:24;20.73;;;17.98;;
19595;SDS011;9945;46.010;8.946;2024-03-08T06:00:53;26.83;;;19.42;;
19595;SDS011;9945;46.010;8.946;2024-03-08T06:03:20;22.33;;;18.83;;
19595;SDS011;9945;46.010;8.946;2024-03-08T06:05:47;22.33;;;18.88;;
19595;SDS011;9945;46.010;8.946;2024-03-08T06:08:15;22.67;;;18.05;;
19595;SDS011;9945;46.010;8.946;2024-03-08T06:10:42;24.35;;;19.35;;
19595;SDS011;9945;46.010;8.946;2024-03-08T06:13:09;23.70;;;18.65;;
19595;SDS011;9945;46.010;8.946;2024-03-08T06:15:37;22.10;;;19.65;;
19595;SDS011;9945;46.010;8.946;2024-03-08T06:18:06;24.58;;;18.95;;
19595;SDS011;9945;46.010;8.946;2024-03-08T06:20:36;22.73;;;19.08;;
19595;SDS011;9945;46.010;8.946;2024-03-08T06:23:03;23.30;;;19.38;;
19595;SDS011;9945;46.010;8.946;2024-03-08T06:25:30;22.73;;;19.10;;
19595;SDS011;9945;46.010;8.946;2024-03-08T06:27:56;21.27;;;17.85;;
19595;SDS011;9945;46.010;8.946;2024-03-08T06:30:24;22.40;;;19.70;;
19595;SDS011;9945;46.010;8.946;2024-03-08T06:32:50;23.40;;;19.13;;
19595;SDS011;9945;46.010;8.946;2024-03-08T06:35:19;30.25;;;21.15;;
19595;SDS011;9945;46.010;8.946;2024-03-08T06:37:46;23.60;;;18.02;;
19595;SDS011;9945;46.010;8.946;2024-03-08T06:40:13;23.35;;;19.67;;
19595;SDS011;9945;46.010;8.946;2024-03-08T06:42:40;25.42;;;20.98;;
19595;SDS011;9945;46.010;8.946;2024-03-08T06:45:08;24.17;;;19.52;;
19595;SDS011;9945;46.010;8.946;2024-03-08T06:47:37;24.35;;;19.27;;
19595;SDS011;9945;46.010;8.946;2024-03-08T06:50:07;25.60;;;19.10;;
19595;SDS011;9945;46.010;8.946;2024-03-08T06:52:36;23.20;;;19.73;;
19595;SDS011;9945;46.010;8.946;2024-03-08T06:55:04;23.95;;;20.90;;
19595;SDS011;9945;46.010;8.946;2024-03-08T06:57:31;25.07;;;19.03;;
19595;SDS011;9945;46.010;8.946;2024-03-08T06:59:58;28.25;;;19.95;;
19595;SDS011;9945;46.010;8.946;2024-03-08T07:02:25;21.52;;;19.23;;
19595;SDS011;9945;46.010;8.946;2024-03-08T07:04:52;26.67;;;19.47;;
19595;SDS011;9945;46.010;8.946;2024-03-08T07:07:19;26.40;;;18.80;;
19595;SDS011;9945;46.010;8.946;2024-03-08T07:09:48;23.92;;;19.42;;
19595;SDS011;9945;46.010;8.946;2024-03-08T07:12:15;21.65;;;18.65;;
19595;SDS011;9945;46.010;8.946;2024-03-08T07:14:43;25.43;;;20.50;;
19595;SDS011;9945;46.010;8.946;2024-03-08T07:17:10;23.30;;;19.63;;
19595;SDS011;9945;46.010;8.946;2024-03-08T07:19:38;26.42;;;19.52;;
19595;SDS011;9945;46.010;8.946;2024-03-08T07:22:05;22.52;;;18.70;;
19595;SDS011;9945;46.010;8.946;2024-03-08T07:24:34;25.42;;;19.08;;
19595;SDS011;9945;46.010;8.946;2024-03-08T07:27:22;23.10;;;18.90;;
19595;SDS011;9945;46.010;8.946;2024-03-08T07:29:49;24.03;;;17.80;;
19595;SDS011;9945;46.010;8.946;2024-03-08T07:32:16;23.50;;;19.45;;
19595;SDS011;9945;46.010;8.946;2024-03-08T07:34:46;20.95;;;17.70;;
19595;SDS011;9945;46.010;8.946;2024-03-08T07:37:15;21.10;;;17.98;;
19595;SDS011;9945;46.010;8.946;2024-03-08T07:39:43;25.65;;;19.92;;
19595;SDS011;9945;46.010;8.946;2024-03-08T07:42:09;23.83;;;18.27;;
19595;SDS011;9945;46.010;8.946;2024-03-08T07:44:38;24.40;;;19.38;;
19595;SDS011;9945;46.010;8.946;2024-03-08T07:47:06;29.70;;;18.83;;
19595;SDS011;9945;46.010;8.946;2024-03-08T07:49:34;26.55;;;19.08;;
19595;SDS011;9945;46.010;8.946;2024-03-08T07:52:02;20.70;;;18.27;;
19595;SDS011;9945;46.010;8.946;2024-03-08T07:54:32;21.98;;;19.05;;
19595;SDS011;9945;46.010;8.946;2024-03-08T07:57:00;35.22;;;19.60;;
19595;SDS011;9945;46.010;8.946;2024-03-08T07:59:28;22.35;;;18.75;;
19595;SDS011;9945;46.010;8.946;2024-03-08T08:01:57;22.48;;;19.30;;
19595;SDS011;9945;46.010;8.946;2024-03-08T08:04:24;29.15;;;20.00;;
19595;SDS011;9945;46.010;8.946;2024-03-08T08:06:52;31.77;;;20.88;;
19595;SDS011;9945;46.010;8.946;2024-03-08T08:09:20;26.85;;;21.13;;
19595;SDS011;9945;46.010;8.946;2024-03-08T08:11:53;27.05;;;21.63;;
19595;SDS011;9945;46.010;8.946;2024-03-08T08:14:23;24.50;;;19.58;;
19595;SDS011;9945;46.010;8.946;2024-03-08T08:16:50;24.60;;;19.42;;
19595;SDS011;9945;46.010;8.946;2024-03-08T08:19:19;27.88;;;20.08;;
19595;SDS011;9945;46.010;8.946;2024-03-08T08:21:46;33.42;;;21.10;;
19595;SDS011;9945;46.010;8.946;2024-03-08T08:24:14;24.30;;;19.65;;
19595;SDS011;9945;46.010;8.946;2024-03-08T08:26:41;23.88;;;19.50;;
19595;SDS011;9945;46.010;8.946;2024-03-08T08:29:09;26.80;;;20.23;;
19595;SDS011;9945;46.010;8.946;2024-03-08T08:31:36;23.67;;;19.60;;
19595;SDS011;9945;46.010;8.946;2024-03-08T08:34:03;27.88;;;20.45;;
19595;SDS011;9945;46.010;8.946;2024-03-08T08:36:32;27.45;;;20.33;;
19595;SDS011;9945;46.010;8.946;2024-03-08T08:38:59;29.77;;;20.92;;
19595;SDS011;9945;46.010;8.946;2024-03-08T08:41:28;25.90;;;19.73;;
19595;SDS011;9945;46.010;8.946;2024-03-08T08:43:55;25.80;;;20.27;;
19595;SDS011;9945;46.010;8.946;2024-03-08T08:46:22;28.27;;;19.83;;
19595;SDS011;9945;46.010;8.946;2024-03-08T08:48:49;27.95;;;21.08;;
19595;SDS011;9945;46.010;8.946;2024-03-08T08:51:17;29.05;;;20.65;;
19595;SDS011;9945;46.010;8.946;2024-03-08T08:53:49;29.45;;;18.95;;
19595;SDS011;9945;46.010;8.946;2024-03-08T08:56:16;25.88;;;19.08;;
19595;SDS011;9945;46.010;8.946;2024-03-08T08:58:44;22.58;;;19.65;;
19595;SDS011;9945;46.010;8.946;2024-03-08T09:01:10;23.05;;;18.58;;
19595;SDS011;9945;46.010;8.946;2024-03-08T09:03:37;26.67;;;19.25;;
19595;SDS011;9945;46.010;8.946;2024-03-08T09:06:06;22.17;;;19.10;;
19595;SDS011;9945;46.010;8.946;2024-03-08T09:08:35;26.42;;;19.30;;
19595;SDS011;9945;46.010;8.946;2024-03-08T09:11:03;31.40;;;18.45;;
19595;SDS011;9945;46.010;8.946;2024-03-08T09:13:30;30.45;;;19.88;;
19595;SDS011;9945;46.010;8.946;2024-03-08T09:15:58;27.70;;;21.05;;
19595;SDS011;9945;46.010;8.946;2024-03-08T09:18:25;22.33;;;19.63;;
19595;SDS011;9945;46.010;8.946;2024-03-08T09:20:52;31.38;;;19.55;;
19595;SDS011;9945;46.010;8.946;2024-03-08T09:23:20;25.48;;;19.88;;
19595;SDS011;9945;46.010;8.946;2024-03-08T09:25:47;25.00;;;20.15;;
19595;SDS011;9945;46.010;8.946;2024-03-08T09:28:15;27.20;;;20.15;;
19595;SDS011;9945;46.010;8.946;2024-03-08T09:30:42;24.40;;;18.83;;
19595;SDS011;9945;46.010;8.946;2024-03-08T09:33:09;37.03;;;21.17;;
19595;SDS011;9945;46.010;8.946;2024-03-08T09:35:36;26.40;;;20.70;;
19595;SDS011;9945;46.010;8.946;2024-03-08T09:38:03;27.33;;;20.73;;
19595;SDS011;9945;46.010;8.946;2024-03-08T09:40:30;87.78;;;25.52;;
19595;SDS011;9945;46.010;8.946;2024-03-08T09:42:57;91.70;;;25.00;;
19595;SDS011;9945;46.010;8.946;2024-03-08T09:45:25;41.65;;;20.38;;
19595;SDS011;9945;46.010;8.946;2024-03-08T09:47:54;25.58;;;19.45;;
19595;SDS011;9945;46.010;8.946;2024-03-08T09:50:22;28.08;;;20.67;;
19595;SDS011;9945;46.010;8.946;2024-03-08T09:52:51;25.17;;;19.92;;
19595;SDS011;9945;46.010;8.946;2024-03-08T09:55:19;26.13;;;20.33;;
19595;SDS011;9945;46.010;8.946;2024-03-08T09:57:48;25.70;;;19.60;;
19595;SDS011;9945;46.010;8.946;2024-03-08T10:00:30;23.67;;;17.58;;
19595;SDS011;9945;46.010;8.946;2024-03-08T10:03:00;26.20;;;19.60;;
19595;SDS011;9945;46.010;8.946;2024-03-08T10:05:28;30.02;;;20.05;;
19595;SDS011;9945;46.010;8.946;2024-03-08T10:07:58;23.10;;;18.63;;
19595;SDS011;9945;46.010;8.946;2024-03-08T10:10:25;24.85;;;19.17;;
19595;SDS011;9945;46.010;8.946;2024-03-08T10:12:52;24.42;;;20.42;;
19595;SDS011;9945;46.010;8.946;2024-03-08T10:15:22;24.48;;;19.50;;
19595;SDS011;9945;46.010;8.946;2024-03-08T10:17:50;38.78;;;20.27;;
19595;SDS011;9945;46.010;8.946;2024-03-08T10:20:18;24.95;;;19.73;;
19595;SDS011;9945;46.010;8.946;2024-03-08T10:22:45;28.08;;;20.25;;
19595;SDS011;9945;46.010;8.946;2024-03-08T10:25:13;26.02;;;21.23;;
19595;SDS011;9945;46.010;8.946;2024-03-08T10:27:40;24.40;;;20.33;;
19595;SDS011;9945;46.010;8.946;2024-03-08T10:30:08;25.50;;;22.30;;
19595;SDS011;9945;46.010;8.946;2024-03-08T10:32:39;86.83;;;26.73;;
19595;SDS011;9945;46.010;8.946;2024-03-08T10:35:08;31.45;;;21.85;;
19595;SDS011;9945;46.010;8.946;2024-03-08T10:37:37;37.37;;;21.87;;
19595;SDS011;9945;46.010;8.946;2024-03-08T10:40:12;26.73;;;19.95;;
19595;SDS011;9945;46.010;8.946;2024-03-08T10:42:46;25.42;;;19.20;;
19595;SDS011;9945;46.010;8.946;2024-03-08T10:45:19;28.55;;;21.25;;
19595;SDS011;9945;46.010;8.946;2024-03-08T10:48:01;24.10;;;19.27;;
19595;SDS011;9945;46.010;8.946;2024-03-08T10:50:34;25.08;;;19.42;;
19595;SDS011;9945;46.010;8.946;2024-03-08T10:53:03;28.42;;;19.63;;
19595;SDS011;9945;46.010;8.946;2024-03-08T10:55:34;22.75;;;19.00;;
19595;SDS011;9945;46.010;8.946;2024-03-08T10:58:07;20.70;;;17.05;;
19595;SDS011;9945;46.010;8.946;2024-03-08T11:00:34;26.50;;;19.23;;
19595;SDS011;9945;46.010;8.946;2024-03-08T11:03:02;25.35;;;18.60;;
19595;SDS011;9945;46.010;8.946;2024-03-08T11:05:37;20.00;;;17.15;;
19595;SDS011;9945;46.010;8.946;2024-03-08T11:08:06;20.10;;;15.25;;
19595;SDS011;9945;46.010;8.946;2024-03-08T11:10:47;20.23;;;16.10;;
19595;SDS011;9945;46.010;8.946;2024-03-08T11:13:35;19.33;;;14.35;;
19595;SDS011;9945;46.010;8.946;2024-03-08T11:16:05;18.70;;;15.23;;
19595;SDS011;9945;46.010;8.946;2024-03-08T11:18:35;17.27;;;14.20;;
19595;SDS011;9945;46.010;8.946;2024-03-08T11:21:04;20.45;;;16.25;;
19595;SDS011;9945;46.010;8.946;2024-03-08T11:23:37;19.67;;;15.27;;
19595;SDS011;9945;46.010;8.946;2024-03-08T11:26:10;18.70;;;14.65;;
19595;SDS011;9945;46.010;8.946;2024-03-08T11:28:44;19.50;;;16.63;;
19595;SDS011;9945;46.010;8.946;2024-03-08T11:31:24;23.85;;;17.80;;
19595;SDS011;9945;46.010;8.946;2024-03-08T11:33:53;25.15;;;16.13;;
19595;SDS011;9945;46.010;8.946;2024-03-08T11:36:23;19.83;;;13.48;;
19595;SDS011;9945;46.010;8.946;2024-03-08T11:38:55;21.83;;;14.55;;
19595;SDS011;9945;46.010;8.946;2024-03-08T11:41:24;15.00;;;12.82;;
19595;SDS011;9945;46.010;8.946;2024-03-08T11:44:01;14.80;;;12.55;;
19595;SDS011;9945;46.010;8.946;2024-03-08T11:46:31;15.13;;;13.60;;
19595;SDS011;9945;46.010;8.946;2024-03-08T11:48:59;17.67;;;13.98;;
19595;SDS011;9945;46.010;8.946;2024-03-08T11:51:28;14.65;;;13.07;;
19595;SDS011;9945;46.010;8.946;2024-03-08T11:53:55;16.65;;;14.38;;
19595;SDS011;9945;46.010;8.946;2024-03-08T11:56:22;16.80;;;13.88;;
19595;SDS011;9945;46.010;8.946;2024-03-08T11:58:52;15.18;;;12.77;;
19595;SDS011;9945;46.010;8.946;2024-03-08T12:01:22;19.88;;;14.00;;
19595;SDS011;9945;46.010;8.946;2024-03-08T12:03:52;18.35;;;13.88;;
19595;SDS011;9945;46.010;8.946;2024-03-08T12:06:19;16.42;;;14.25;;
19595;SDS011;9945;46.010;8.946;2024-03-08T12:08:48;15.52;;;12.82;;
19595;SDS011;9945;46.010;8.946;2024-03-08T12:11:16;16.58;;;14.57;;
19595;SDS011;9945;46.010;8.946;2024-03-08T12:13:48;18.00;;;14.70;;
19595;SDS011;9945;46.010;8.946;2024-03-08T12:16:16;14.52;;;12.98;;
19595;SDS011;9945;46.010;8.946;2024-03-08T12:18:44;19.30;;;13.57;;
19595;SDS011;9945;46.010;8.946;2024-03-08T12:21:12;14.52;;;13.00;;
19595;SDS011;9945;46.010;8.946;2024-03-08T12:23:42;16.90;;;13.77;;
19595;SDS011;9945;46.010;8.946;2024-03-08T12:26:13;14.65;;;12.75;;
19595;SDS011;9945;46.010;8.946;2024-03-08T12:28:41;17.40;;;13.95;;
19595;SDS011;9945;46.010;8.946;2024-03-08T12:31:11;17.35;;;15.55;;
19595;SDS011;9945;46.010;8.946;2024-03-08T12:33:47;18.85;;;14.93;;
19595;SDS011;9945;46.010;8.946;2024-03-08T12:36:15;18.83;;;14.88;;
19595;SDS011;9945;46.010;8.946;2024-03-08T12:38:43;16.13;;;13.82;;
19595;SDS011;9945;46.010;8.946;2024-03-08T12:41:14;16.90;;;13.57;;
19595;SDS011;9945;46.010;8.946;2024-03-08T12:43:42;14.88;;;12.75;;
19595;SDS011;9945;46.010;8.946;2024-03-08T12:46:13;13.60;;;11.35;;
19595;SDS011;9945;46.010;8.946;2024-03-08T12:48:41;12.98;;;11.68;;
19595;SDS011;9945;46.010;8.946;2024-03-08T12:51:12;12.52;;;11.27;;
19595;SDS011;9945;46.010;8.946;2024-03-08T12:53:39;13.48;;;12.07;;
19595;SDS011;9945;46.010;8.946;2024-03-08T12:56:09;13.63;;;10.73;;
19595;SDS011;9945;46.010;8.946;2024-03-08T12:58:37;11.43;;;10.32;;
19595;SDS011;9945;46.010;8.946;2024-03-08T13:01:05;21.23;;;12.73;;
19595;SDS011;9945;46.010;8.946;2024-03-08T13:03:33;16.77;;;12.85;;
19595;SDS011;9945;46.010;8.946;2024-03-08T13:06:00;15.80;;;12.13;;
19595;SDS011;9945;46.010;8.946;2024-03-08T13:08:27;13.13;;;11.80;;
19595;SDS011;9945;46.010;8.946;2024-03-08T13:10:56;13.30;;;11.93;;
19595;SDS011;9945;46.010;8.946;2024-03-08T13:13:24;14.88;;;11.88;;
19595;SDS011;9945;46.010;8.946;2024-03-08T13:15:52;13.40;;;11.82;;
19595;SDS011;9945;46.010;8.946;2024-03-08T13:18:21;11.57;;;10.45;;
19595;SDS011;9945;46.010;8.946;2024-03-08T13:20:48;15.27;;;12.57;;
19595;SDS011;9945;46.010;8.946;2024-03-08T13:23:17;14.63;;;11.45;;
19595;SDS011;9945;46.010;8.946;2024-03-08T13:25:44;13.73;;;11.30;;
19595;SDS011;9945;46.010;8.946;2024-03-08T13:28:12;12.27;;;10.98;;
19595;SDS011;9945;46.010;8.946;2024-03-08T13:30:40;13.85;;;10.68;;
19595;SDS011;9945;46.010;8.946;2024-03-08T13:33:10;12.18;;;10.80;;
19595;SDS011;9945;46.010;8.946;2024-03-08T13:35:38;11.68;;;10.48;;
19595;SDS011;9945;46.010;8.946;2024-03-08T13:38:06;13.98;;;11.23;;
19595;SDS011;9945;46.010;8.946;2024-03-08T13:40:34;15.60;;;11.23;;
19595;SDS011;9945;46.010;8.946;2024-03-08T13:43:01;14.98;;;10.77;;
19595;SDS011;9945;46.010;8.946;2024-03-08T13:45:28;14.65;;;10.52;;
19595;SDS011;9945;46.010;8.946;2024-03-08T13:47:55;12.02;;;10.82;;
19595;SDS011;9945;46.010;8.946;2024-03-08T13:50:24;11.85;;;10.48;;
19595;SDS011;9945;46.010;8.946;2024-03-08T13:52:52;12.60;;;10.25;;
19595;SDS011;9945;46.010;8.946;2024-03-08T13:55:19;11.73;;;10.57;;
19595;SDS011;9945;46.010;8.946;2024-03-08T13:57:47;12.50;;;11.20;;
19595;SDS011;9945;46.010;8.946;2024-03-08T14:00:15;12.15;;;10.32;;
19595;SDS011;9945;46.010;8.946;2024-03-08T14:02:42;13.40;;;10.93;;
19595;SDS011;9945;46.010;8.946;2024-03-08T14:05:09;11.63;;;10.48;;
19595;SDS011;9945;46.010;8.946;2024-03-08T14:07:39;11.40;;;9.85;;
19595;SDS011;9945;46.010;8.946;2024-03-08T14:10:07;14.10;;;10.38;;
19595;SDS011;9945;46.010;8.946;2024-03-08T14:12:34;12.13;;;10.45;;
19595;SDS011;9945;46.010;8.946;2024-03-08T14:15:03;14.43;;;10.70;;
19595;SDS011;9945;46.010;8.946;2024-03-08T14:17:31;17.27;;;11.55;;
19595;SDS011;9945;46.010;8.946;2024-03-08T14:19:58;12.60;;;11.40;;
19595;SDS011;9945;46.010;8.946;2024-03-08T14:22:25;12.57;;;10.77;;
19595;SDS011;9945;46.010;8.946;2024-03-08T14:24:53;14.68;;;10.82;;
19595;SDS011;9945;46.010;8.946;2024-03-08T14:27:21;11.30;;;10.30;;
19595;SDS011;9945;46.010;8.946;2024-03-08T14:29:48;19.35;;;11.20;;
19595;SDS011;9945;46.010;8.946;2024-03-08T14:32:15;12.25;;;10.98;;
19595;SDS011;9945;46.010;8.946;2024-03-08T14:34:44;12.00;;;10.65;;
19595;SDS011;9945;46.010;8.946;2024-03-08T14:37:12;13.88;;;10.88;;
19595;SDS011;9945;46.010;8.946;2024-03-08T14:39:39;12.25;;;10.55;;
19595;SDS011;9945;46.010;8.946;2024-03-08T14:42:08;12.93;;;10.80;;